sensor_id;sensor_type;location;lat;lon;timestamp;P1;durP1;ratioP1;P2;durP2;ratioP2
71395;SDS011;59888;55.814;37.132;2023-02-18T00:01:22;25.55;;;11.43;;
71395;SDS011;59888;55.814;37.132;2023-02-18T00:03:49;27.10;;;11.00;;
71395;SDS011;59888;55.814;37.132;2023-02-18T00:06:17;23.17;;;10.20;;
71395;SDS011;59888;55.814;37.132;2023-02-18T00:08:51;29.15;;;10.85;;
71395;SDS011;59888;55.814;37.132;2023-02-18T00:11:18;25.73;;;10.82;;
71395;SDS011;59888;55.814;37.132;2023-02-18T00:13:49;29.10;;;11.60;;
71395;SDS011;59888;55.814;37.132;2023-02-18T00:16:19;23.10;;;10.07;;
71395;SDS011;59888;55.814;37.132;2023-02-18T00:18:45;28.52;;;11.15;;
71395;SDS011;59888;55.814;37.132;2023-02-18T00:21:12;22.98;;;10.02;;
71395;SDS011;59888;55.814;37.132;2023-02-18T00:23:38;28.65;;;10.45;;
71395;SDS011;59888;55.814;37.132;2023-02-18T00:26:09;24.52;;;9.63;;
71395;SDS011;59888;55.814;37.132;2023-02-18T00:28:38;24.60;;;9.55;;
71395;SDS011;59888;55.814;37.132;2023-02-18T00:31:05;25.80;;;11.00;;
71395;SDS011;59888;55.814;37.132;2023-02-18T00:33:32;27.75;;;11.30;;
71395;SDS011;59888;55.814;37.132;2023-02-18T00:36:03;24.77;;;10.43;;
71395;SDS011;59888;55.814;37.132;2023-02-18T00:38:31;25.52;;;11.07;;
71395;SDS011;59888;55.814;37.132;2023-02-18T00:40:57;29.25;;;11.05;;
71395;SDS011;59888;55.814;37.132;2023-02-18T00:43:23;25.42;;;10.60;;
71395;SDS011;59888;55.814;37.132;2023-02-18T00:45:49;26.13;;;10.05;;
71395;SDS011;59888;55.814;37.132;2023-02-18T00:48:15;24.73;;;10.88;;
71395;SDS011;59888;55.814;37.132;2023-02-18T00:50:41;26.23;;;11.10;;
71395;SDS011;59888;55.814;37.132;2023-02-18T00:53:06;23.65;;;10.23;;
71395;SDS011;59888;55.814;37.132;2023-02-18T00:55:37;23.05;;;10.20;;
71395;SDS011;59888;55.814;37.132;2023-02-18T00:58:03;26.65;;;10.70;;
71395;SDS011;59888;55.814;37.132;2023-02-18T01:00:29;27.10;;;10.27;;
71395;SDS011;59888;55.814;37.132;2023-02-18T01:02:55;28.98;;;11.02;;
71395;SDS011;59888;55.814;37.132;2023-02-18T01:05:21;26.70;;;10.75;;
71395;SDS011;59888;55.814;37.132;2023-02-18T01:07:47;24.10;;;10.27;;
71395;SDS011;59888;55.814;37.132;2023-02-18T01:10:13;31.65;;;11.32;;
71395;SDS011;59888;55.814;37.132;2023-02-18T01:12:39;25.73;;;10.15;;
71395;SDS011;59888;55.814;37.132;2023-02-18T01:15:05;26.92;;;10.50;;
71395;SDS011;59888;55.814;37.132;2023-02-18T01:17:32;24.77;;;9.50;;
71395;SDS011;59888;55.814;37.132;2023-02-18T01:19:58;23.75;;;10.90;;
71395;SDS011;59888;55.814;37.132;2023-02-18T01:22:24;23.95;;;9.98;;
71395;SDS011;59888;55.814;37.132;2023-02-18T01:24:50;23.23;;;9.25;;
71395;SDS011;59888;55.814;37.132;2023-02-18T01:27:16;26.33;;;10.55;;
71395;SDS011;59888;55.814;37.132;2023-02-18T01:29:42;28.85;;;11.73;;
71395;SDS011;59888;55.814;37.132;2023-02-18T01:32:08;26.10;;;10.73;;
71395;SDS011;59888;55.814;37.132;2023-02-18T01:34:34;26.65;;;10.68;;
71395;SDS011;59888;55.814;37.132;2023-02-18T01:37:00;28.67;;;10.48;;
71395;SDS011;59888;55.814;37.132;2023-02-18T01:39:25;26.48;;;10.85;;
71395;SDS011;59888;55.814;37.132;2023-02-18T01:41:51;24.92;;;9.48;;
71395;SDS011;59888;55.814;37.132;2023-02-18T01:44:18;26.50;;;10.35;;
71395;SDS011;59888;55.814;37.132;2023-02-18T01:46:46;20.52;;;8.75;;
71395;SDS011;59888;55.814;37.132;2023-02-18T01:49:18;23.85;;;10.15;;
71395;SDS011;59888;55.814;37.132;2023-02-18T01:51:49;28.20;;;10.50;;
71395;SDS011;59888;55.814;37.132;2023-02-18T01:56:56;24.80;;;10.60;;
71395;SDS011;59888;55.814;37.132;2023-02-18T01:59:27;27.27;;;10.93;;
71395;SDS011;59888;55.814;37.132;2023-02-18T02:02:01;26.13;;;10.75;;
71395;SDS011;59888;55.814;37.132;2023-02-18T02:04:28;26.52;;;10.25;;
71395;SDS011;59888;55.814;37.132;2023-02-18T02:06:55;27.90;;;10.68;;
71395;SDS011;59888;55.814;37.132;2023-02-18T02:09:22;25.05;;;10.40;;
71395;SDS011;59888;55.814;37.132;2023-02-18T02:21:31;24.90;;;10.05;;
71395;SDS011;59888;55.814;37.132;2023-02-18T02:33:10;23.40;;;9.18;;
71395;SDS011;59888;55.814;37.132;2023-02-18T02:35:51;26.30;;;9.88;;
71395;SDS011;59888;55.814;37.132;2023-02-18T02:41:31;23.63;;;9.80;;
71395;SDS011;59888;55.814;37.132;2023-02-18T02:46:57;26.95;;;9.85;;
71395;SDS011;59888;55.814;37.132;2023-02-18T02:52:06;25.58;;;9.75;;
71395;SDS011;59888;55.814;37.132;2023-02-18T02:54:38;23.48;;;9.25;;
71395;SDS011;59888;55.814;37.132;2023-02-18T02:57:36;23.33;;;9.35;;
71395;SDS011;59888;55.814;37.132;2023-02-18T03:00:10;24.98;;;9.15;;
71395;SDS011;59888;55.814;37.132;2023-02-18T03:02:55;24.67;;;10.07;;
71395;SDS011;59888;55.814;37.132;2023-02-18T03:11:05;22.10;;;9.25;;
71395;SDS011;59888;55.814;37.132;2023-02-18T03:19:13;25.33;;;9.55;;
71395;SDS011;59888;55.814;37.132;2023-02-18T03:24:13;22.15;;;9.10;;
71395;SDS011;59888;55.814;37.132;2023-02-18T03:27:00;22.40;;;8.65;;
71395;SDS011;59888;55.814;37.132;2023-02-18T03:29:35;23.10;;;9.35;;
71395;SDS011;59888;55.814;37.132;2023-02-18T03:32:03;21.27;;;9.10;;
71395;SDS011;59888;55.814;37.132;2023-02-18T03:34:33;24.00;;;9.57;;
71395;SDS011;59888;55.814;37.132;2023-02-18T03:37:05;24.98;;;9.60;;
71395;SDS011;59888;55.814;37.132;2023-02-18T03:39:34;21.85;;;9.07;;
71395;SDS011;59888;55.814;37.132;2023-02-18T03:42:02;20.05;;;8.68;;
71395;SDS011;59888;55.814;37.132;2023-02-18T03:44:29;21.50;;;9.25;;
71395;SDS011;59888;55.814;37.132;2023-02-18T03:46:56;21.38;;;8.30;;
71395;SDS011;59888;55.814;37.132;2023-02-18T03:49:22;19.55;;;8.70;;
71395;SDS011;59888;55.814;37.132;2023-02-18T03:51:48;20.77;;;7.75;;
71395;SDS011;59888;55.814;37.132;2023-02-18T03:54:14;22.75;;;9.10;;
71395;SDS011;59888;55.814;37.132;2023-02-18T03:56:41;20.55;;;8.88;;
71395;SDS011;59888;55.814;37.132;2023-02-18T03:59:07;21.02;;;9.07;;
71395;SDS011;59888;55.814;37.132;2023-02-18T04:01:34;24.55;;;8.98;;
71395;SDS011;59888;55.814;37.132;2023-02-18T04:04:00;15.63;;;7.40;;
71395;SDS011;59888;55.814;37.132;2023-02-18T04:06:27;17.17;;;7.30;;
71395;SDS011;59888;55.814;37.132;2023-02-18T04:08:53;19.45;;;9.07;;
71395;SDS011;59888;55.814;37.132;2023-02-18T04:11:19;20.33;;;8.23;;
71395;SDS011;59888;55.814;37.132;2023-02-18T04:13:45;15.80;;;7.95;;
71395;SDS011;59888;55.814;37.132;2023-02-18T04:16:11;19.52;;;8.10;;
71395;SDS011;59888;55.814;37.132;2023-02-18T04:18:37;19.73;;;8.35;;
71395;SDS011;59888;55.814;37.132;2023-02-18T04:21:03;22.20;;;8.85;;
71395;SDS011;59888;55.814;37.132;2023-02-18T04:23:29;16.45;;;7.50;;
71395;SDS011;59888;55.814;37.132;2023-02-18T04:25:55;19.73;;;7.88;;
71395;SDS011;59888;55.814;37.132;2023-02-18T04:28:21;19.30;;;8.20;;
71395;SDS011;59888;55.814;37.132;2023-02-18T04:30:47;19.63;;;8.15;;
71395;SDS011;59888;55.814;37.132;2023-02-18T04:33:13;19.17;;;8.52;;
71395;SDS011;59888;55.814;37.132;2023-02-18T04:35:40;21.55;;;8.65;;
71395;SDS011;59888;55.814;37.132;2023-02-18T04:38:06;19.48;;;8.25;;
71395;SDS011;59888;55.814;37.132;2023-02-18T04:40:33;20.83;;;7.85;;
71395;SDS011;59888;55.814;37.132;2023-02-18T04:42:59;19.20;;;7.88;;
71395;SDS011;59888;55.814;37.132;2023-02-18T04:45:26;21.05;;;8.07;;
71395;SDS011;59888;55.814;37.132;2023-02-18T04:47:52;21.23;;;8.95;;
71395;SDS011;59888;55.814;37.132;2023-02-18T04:50:19;21.90;;;9.32;;
71395;SDS011;59888;55.814;37.132;2023-02-18T04:52:46;22.42;;;9.27;;
71395;SDS011;59888;55.814;37.132;2023-02-18T04:55:12;20.92;;;8.35;;
71395;SDS011;59888;55.814;37.132;2023-02-18T04:57:38;22.05;;;10.00;;
71395;SDS011;59888;55.814;37.132;2023-02-18T05:00:06;24.67;;;10.25;;
71395;SDS011;59888;55.814;37.132;2023-02-18T05:02:34;20.67;;;9.13;;
71395;SDS011;59888;55.814;37.132;2023-02-18T05:04:59;24.70;;;9.82;;
71395;SDS011;59888;55.814;37.132;2023-02-18T05:07:25;20.15;;;9.18;;
71395;SDS011;59888;55.814;37.132;2023-02-18T05:09:51;24.58;;;10.68;;
71395;SDS011;59888;55.814;37.132;2023-02-18T05:12:18;26.13;;;10.63;;
71395;SDS011;59888;55.814;37.132;2023-02-18T05:14:44;25.63;;;10.20;;
71395;SDS011;59888;55.814;37.132;2023-02-18T05:17:10;27.67;;;10.68;;
71395;SDS011;59888;55.814;37.132;2023-02-18T05:19:36;25.60;;;11.57;;
71395;SDS011;59888;55.814;37.132;2023-02-18T05:22:02;24.52;;;10.02;;
71395;SDS011;59888;55.814;37.132;2023-02-18T05:24:28;28.02;;;11.27;;
71395;SDS011;59888;55.814;37.132;2023-02-18T05:26:53;21.15;;;9.73;;
71395;SDS011;59888;55.814;37.132;2023-02-18T05:29:19;28.42;;;10.85;;
71395;SDS011;59888;55.814;37.132;2023-02-18T05:31:45;25.05;;;10.48;;
71395;SDS011;59888;55.814;37.132;2023-02-18T05:34:11;23.60;;;9.75;;
71395;SDS011;59888;55.814;37.132;2023-02-18T05:36:37;25.88;;;11.13;;
71395;SDS011;59888;55.814;37.132;2023-02-18T05:39:04;25.90;;;10.88;;
71395;SDS011;59888;55.814;37.132;2023-02-18T05:41:30;30.25;;;11.80;;
71395;SDS011;59888;55.814;37.132;2023-02-18T05:43:56;26.95;;;11.65;;
71395;SDS011;59888;55.814;37.132;2023-02-18T05:49:06;30.33;;;11.57;;
71395;SDS011;59888;55.814;37.132;2023-02-18T05:51:32;28.15;;;11.93;;
71395;SDS011;59888;55.814;37.132;2023-02-18T05:53:58;29.83;;;11.07;;
71395;SDS011;59888;55.814;37.132;2023-02-18T05:56:23;29.00;;;12.23;;
71395;SDS011;59888;55.814;37.132;2023-02-18T05:58:49;28.05;;;12.48;;
71395;SDS011;59888;55.814;37.132;2023-02-18T06:01:15;27.35;;;11.75;;
71395;SDS011;59888;55.814;37.132;2023-02-18T06:03:41;27.50;;;10.90;;
71395;SDS011;59888;55.814;37.132;2023-02-18T06:06:07;26.05;;;11.18;;
71395;SDS011;59888;55.814;37.132;2023-02-18T06:08:33;27.00;;;11.63;;
71395;SDS011;59888;55.814;37.132;2023-02-18T06:10:59;28.20;;;11.13;;
71395;SDS011;59888;55.814;37.132;2023-02-18T06:13:25;25.13;;;10.68;;
71395;SDS011;59888;55.814;37.132;2023-02-18T06:15:51;30.05;;;11.55;;
71395;SDS011;59888;55.814;37.132;2023-02-18T06:18:18;27.52;;;11.75;;
71395;SDS011;59888;55.814;37.132;2023-02-18T06:20:45;27.00;;;10.68;;
71395;SDS011;59888;55.814;37.132;2023-02-18T06:23:11;28.98;;;11.13;;
71395;SDS011;59888;55.814;37.132;2023-02-18T06:25:37;28.60;;;11.77;;
71395;SDS011;59888;55.814;37.132;2023-02-18T06:28:03;26.30;;;11.55;;
71395;SDS011;59888;55.814;37.132;2023-02-18T06:30:29;26.48;;;11.55;;
71395;SDS011;59888;55.814;37.132;2023-02-18T06:32:55;25.42;;;10.60;;
71395;SDS011;59888;55.814;37.132;2023-02-18T06:35:21;24.30;;;10.65;;
71395;SDS011;59888;55.814;37.132;2023-02-18T06:37:47;25.52;;;11.07;;
71395;SDS011;59888;55.814;37.132;2023-02-18T06:40:13;26.83;;;11.18;;
71395;SDS011;59888;55.814;37.132;2023-02-18T06:42:39;22.58;;;11.05;;
71395;SDS011;59888;55.814;37.132;2023-02-18T06:45:05;28.85;;;11.48;;
71395;SDS011;59888;55.814;37.132;2023-02-18T06:47:32;29.77;;;11.65;;
71395;SDS011;59888;55.814;37.132;2023-02-18T06:49:58;26.73;;;10.60;;
71395;SDS011;59888;55.814;37.132;2023-02-18T06:52:24;23.55;;;10.80;;
71395;SDS011;59888;55.814;37.132;2023-02-18T06:54:50;25.10;;;10.40;;
71395;SDS011;59888;55.814;37.132;2023-02-18T06:57:16;23.98;;;10.20;;
71395;SDS011;59888;55.814;37.132;2023-02-18T06:59:41;25.80;;;11.45;;
71395;SDS011;59888;55.814;37.132;2023-02-18T07:02:09;26.80;;;11.57;;
71395;SDS011;59888;55.814;37.132;2023-02-18T07:04:37;27.35;;;11.07;;
71395;SDS011;59888;55.814;37.132;2023-02-18T07:07:03;26.58;;;11.45;;
71395;SDS011;59888;55.814;37.132;2023-02-18T07:09:29;26.13;;;11.02;;
71395;SDS011;59888;55.814;37.132;2023-02-18T07:12:02;23.98;;;10.82;;
71395;SDS011;59888;55.814;37.132;2023-02-18T07:16:54;31.65;;;12.93;;
71395;SDS011;59888;55.814;37.132;2023-02-18T07:19:20;29.05;;;11.65;;
71395;SDS011;59888;55.814;37.132;2023-02-18T07:21:46;30.30;;;12.55;;
71395;SDS011;59888;55.814;37.132;2023-02-18T07:24:12;26.42;;;11.38;;
71395;SDS011;59888;55.814;37.132;2023-02-18T07:26:38;26.63;;;12.43;;
71395;SDS011;59888;55.814;37.132;2023-02-18T07:29:03;26.92;;;11.93;;
71395;SDS011;59888;55.814;37.132;2023-02-18T07:31:29;32.53;;;13.13;;
71395;SDS011;59888;55.814;37.132;2023-02-18T07:33:56;28.00;;;12.40;;
71395;SDS011;59888;55.814;37.132;2023-02-18T07:36:21;30.67;;;12.43;;
71395;SDS011;59888;55.814;37.132;2023-02-18T07:38:47;32.30;;;12.50;;
71395;SDS011;59888;55.814;37.132;2023-02-18T07:41:15;26.40;;;12.13;;
71395;SDS011;59888;55.814;37.132;2023-02-18T07:43:43;31.50;;;12.90;;
71395;SDS011;59888;55.814;37.132;2023-02-18T07:46:09;29.40;;;12.13;;
71395;SDS011;59888;55.814;37.132;2023-02-18T07:48:35;30.60;;;13.18;;
71395;SDS011;59888;55.814;37.132;2023-02-18T07:51:04;29.85;;;12.40;;
71395;SDS011;59888;55.814;37.132;2023-02-18T07:53:34;31.10;;;13.23;;
71395;SDS011;59888;55.814;37.132;2023-02-18T07:56:01;33.28;;;12.23;;
71395;SDS011;59888;55.814;37.132;2023-02-18T07:58:29;26.83;;;11.65;;
71395;SDS011;59888;55.814;37.132;2023-02-18T08:00:57;31.35;;;12.70;;
71395;SDS011;59888;55.814;37.132;2023-02-18T08:03:24;29.08;;;11.40;;
71395;SDS011;59888;55.814;37.132;2023-02-18T08:05:54;29.10;;;13.02;;
71395;SDS011;59888;55.814;37.132;2023-02-18T08:08:22;32.40;;;13.15;;
71395;SDS011;59888;55.814;37.132;2023-02-18T08:10:50;30.70;;;13.05;;
71395;SDS011;59888;55.814;37.132;2023-02-18T08:13:18;31.63;;;13.38;;
71395;SDS011;59888;55.814;37.132;2023-02-18T08:15:44;30.83;;;13.27;;
71395;SDS011;59888;55.814;37.132;2023-02-18T08:18:14;35.60;;;13.75;;
71395;SDS011;59888;55.814;37.132;2023-02-18T08:20:42;28.90;;;12.25;;
71395;SDS011;59888;55.814;37.132;2023-02-18T08:23:08;31.20;;;12.65;;
71395;SDS011;59888;55.814;37.132;2023-02-18T08:25:35;26.15;;;12.13;;
71395;SDS011;59888;55.814;37.132;2023-02-18T08:28:01;25.80;;;11.07;;
71395;SDS011;59888;55.814;37.132;2023-02-18T08:30:27;30.30;;;11.90;;
71395;SDS011;59888;55.814;37.132;2023-02-18T08:32:53;22.05;;;10.65;;
71395;SDS011;59888;55.814;37.132;2023-02-18T08:35:19;21.58;;;9.70;;
71395;SDS011;59888;55.814;37.132;2023-02-18T08:37:45;20.08;;;9.15;;
71395;SDS011;59888;55.814;37.132;2023-02-18T08:40:11;23.08;;;10.55;;
71395;SDS011;59888;55.814;37.132;2023-02-18T08:42:38;12.50;;;6.70;;
71395;SDS011;59888;55.814;37.132;2023-02-18T08:45:05;19.48;;;9.32;;
71395;SDS011;59888;55.814;37.132;2023-02-18T08:47:31;18.40;;;8.70;;
71395;SDS011;59888;55.814;37.132;2023-02-18T08:49:57;16.80;;;8.32;;
71395;SDS011;59888;55.814;37.132;2023-02-18T08:52:24;18.33;;;8.75;;
71395;SDS011;59888;55.814;37.132;2023-02-18T08:54:50;20.77;;;8.52;;
71395;SDS011;59888;55.814;37.132;2023-02-18T08:57:16;16.52;;;8.38;;
71395;SDS011;59888;55.814;37.132;2023-02-18T08:59:42;16.48;;;8.23;;
71395;SDS011;59888;55.814;37.132;2023-02-18T09:02:14;14.80;;;7.10;;
71395;SDS011;59888;55.814;37.132;2023-02-18T09:04:40;16.75;;;7.65;;
71395;SDS011;59888;55.814;37.132;2023-02-18T09:07:06;16.73;;;7.40;;
71395;SDS011;59888;55.814;37.132;2023-02-18T09:09:32;16.23;;;7.32;;
71395;SDS011;59888;55.814;37.132;2023-02-18T09:11:58;15.00;;;7.72;;
71395;SDS011;59888;55.814;37.132;2023-02-18T09:14:24;15.23;;;7.20;;
71395;SDS011;59888;55.814;37.132;2023-02-18T09:16:50;15.20;;;7.03;;
71395;SDS011;59888;55.814;37.132;2023-02-18T09:19:16;17.27;;;7.30;;
71395;SDS011;59888;55.814;37.132;2023-02-18T09:21:42;14.50;;;7.05;;
71395;SDS011;59888;55.814;37.132;2023-02-18T09:24:08;14.18;;;7.20;;
71395;SDS011;59888;55.814;37.132;2023-02-18T09:26:35;13.60;;;6.38;;
71395;SDS011;59888;55.814;37.132;2023-02-18T09:29:02;15.75;;;6.22;;
71395;SDS011;59888;55.814;37.132;2023-02-18T09:31:28;15.10;;;7.03;;
71395;SDS011;59888;55.814;37.132;2023-02-18T09:33:56;14.52;;;7.30;;
71395;SDS011;59888;55.814;37.132;2023-02-18T09:36:26;14.43;;;6.78;;
71395;SDS011;59888;55.814;37.132;2023-02-18T09:38:53;13.88;;;5.78;;
71395;SDS011;59888;55.814;37.132;2023-02-18T09:47:17;12.00;;;5.82;;
71395;SDS011;59888;55.814;37.132;2023-02-18T09:50:13;11.80;;;5.55;;
71395;SDS011;59888;55.814;37.132;2023-02-18T09:52:46;11.23;;;5.47;;
71395;SDS011;59888;55.814;37.132;2023-02-18T09:55:17;12.80;;;5.72;;
71395;SDS011;59888;55.814;37.132;2023-02-18T09:57:58;12.95;;;5.85;;
71395;SDS011;59888;55.814;37.132;2023-02-18T10:00:45;11.88;;;5.93;;
71395;SDS011;59888;55.814;37.132;2023-02-18T10:03:24;9.77;;;5.35;;
71395;SDS011;59888;55.814;37.132;2023-02-18T10:08:48;10.68;;;5.47;;
71395;SDS011;59888;55.814;37.132;2023-02-18T10:11:37;10.32;;;6.03;;
71395;SDS011;59888;55.814;37.132;2023-02-18T10:14:11;11.65;;;5.18;;
71395;SDS011;59888;55.814;37.132;2023-02-18T10:16:39;13.00;;;5.50;;
71395;SDS011;59888;55.814;37.132;2023-02-18T10:19:20;12.70;;;5.75;;
71395;SDS011;59888;55.814;37.132;2023-02-18T10:21:50;10.77;;;5.40;;
71395;SDS011;59888;55.814;37.132;2023-02-18T10:26:55;10.60;;;5.60;;
71395;SDS011;59888;55.814;37.132;2023-02-18T10:29:22;10.88;;;5.65;;
71395;SDS011;59888;55.814;37.132;2023-02-18T10:31:51;13.65;;;6.00;;
71395;SDS011;59888;55.814;37.132;2023-02-18T10:34:45;13.13;;;5.88;;
71395;SDS011;59888;55.814;37.132;2023-02-18T10:40:02;11.85;;;5.28;;
71395;SDS011;59888;55.814;37.132;2023-02-18T10:45:27;11.07;;;5.50;;
71395;SDS011;59888;55.814;37.132;2023-02-18T10:51:18;10.57;;;5.50;;
71395;SDS011;59888;55.814;37.132;2023-02-18T10:53:48;11.68;;;5.90;;
71395;SDS011;59888;55.814;37.132;2023-02-18T10:56:36;13.82;;;6.20;;
71395;SDS011;59888;55.814;37.132;2023-02-18T10:59:21;12.90;;;6.45;;
71395;SDS011;59888;55.814;37.132;2023-02-18T11:01:59;12.15;;;5.50;;
71395;SDS011;59888;55.814;37.132;2023-02-18T11:04:38;15.98;;;7.18;;
71395;SDS011;59888;55.814;37.132;2023-02-18T11:07:20;13.13;;;6.60;;
71395;SDS011;59888;55.814;37.132;2023-02-18T11:09:49;14.70;;;6.95;;
71395;SDS011;59888;55.814;37.132;2023-02-18T11:15:03;13.98;;;6.65;;
71395;SDS011;59888;55.814;37.132;2023-02-18T11:17:32;15.60;;;7.07;;
71395;SDS011;59888;55.814;37.132;2023-02-18T11:20:04;13.75;;;6.78;;
71395;SDS011;59888;55.814;37.132;2023-02-18T11:22:58;13.13;;;6.60;;
71395;SDS011;59888;55.814;37.132;2023-02-18T11:25:39;13.43;;;6.47;;
71395;SDS011;59888;55.814;37.132;2023-02-18T11:30:42;13.60;;;6.85;;
71395;SDS011;59888;55.814;37.132;2023-02-18T11:33:17;16.75;;;7.20;;
71395;SDS011;59888;55.814;37.132;2023-02-18T11:35:51;15.70;;;7.75;;
71395;SDS011;59888;55.814;37.132;2023-02-18T11:40:56;16.77;;;7.18;;
71395;SDS011;59888;55.814;37.132;2023-02-18T11:43:31;17.00;;;7.65;;
71395;SDS011;59888;55.814;37.132;2023-02-18T11:48:42;12.77;;;6.38;;
71395;SDS011;59888;55.814;37.132;2023-02-18T11:51:15;13.63;;;6.93;;
71395;SDS011;59888;55.814;37.132;2023-02-18T11:54:57;18.10;;;7.18;;
71395;SDS011;59888;55.814;37.132;2023-02-18T11:56:54;14.70;;;7.38;;
71395;SDS011;59888;55.814;37.132;2023-02-18T11:59:31;14.10;;;7.05;;
71395;SDS011;59888;55.814;37.132;2023-02-18T12:04:29;15.50;;;7.05;;
71395;SDS011;59888;55.814;37.132;2023-02-18T12:09:48;14.30;;;6.30;;
71395;SDS011;59888;55.814;37.132;2023-02-18T12:15:15;15.50;;;6.53;;
71395;SDS011;59888;55.814;37.132;2023-02-18T12:17:49;15.93;;;7.13;;
71395;SDS011;59888;55.814;37.132;2023-02-18T12:21:01;15.68;;;7.07;;
71395;SDS011;59888;55.814;37.132;2023-02-18T12:23:40;17.65;;;7.00;;
71395;SDS011;59888;55.814;37.132;2023-02-18T12:26:25;13.57;;;6.95;;
71395;SDS011;59888;55.814;37.132;2023-02-18T12:37:16;13.30;;;6.80;;
71395;SDS011;59888;55.814;37.132;2023-02-18T12:54:07;13.95;;;6.20;;
71395;SDS011;59888;55.814;37.132;2023-02-18T13:11:49;12.82;;;6.72;;
71395;SDS011;59888;55.814;37.132;2023-02-18T13:14:27;12.43;;;6.10;;
71395;SDS011;59888;55.814;37.132;2023-02-18T13:16:57;16.05;;;6.53;;
71395;SDS011;59888;55.814;37.132;2023-02-18T13:19:26;12.48;;;5.80;;
71395;SDS011;59888;55.814;37.132;2023-02-18T13:22:03;12.00;;;6.38;;
71395;SDS011;59888;55.814;37.132;2023-02-18T13:24:38;14.85;;;6.00;;
71395;SDS011;59888;55.814;37.132;2023-02-18T13:41:12;11.15;;;5.75;;
71395;SDS011;59888;55.814;37.132;2023-02-18T13:43:38;11.75;;;5.32;;
71395;SDS011;59888;55.814;37.132;2023-02-18T13:51:38;11.40;;;5.47;;
71395;SDS011;59888;55.814;37.132;2023-02-18T14:01:51;10.13;;;5.28;;
71395;SDS011;59888;55.814;37.132;2023-02-18T14:09:44;12.32;;;4.78;;
71395;SDS011;59888;55.814;37.132;2023-02-18T14:14:50;10.63;;;4.65;;
71395;SDS011;59888;55.814;37.132;2023-02-18T14:20:29;11.40;;;5.10;;
71395;SDS011;59888;55.814;37.132;2023-02-18T14:22:33;9.98;;;4.65;;
71395;SDS011;59888;55.814;37.132;2023-02-18T14:27:35;9.57;;;5.28;;
71395;SDS011;59888;55.814;37.132;2023-02-18T14:30:05;9.77;;;4.90;;
71395;SDS011;59888;55.814;37.132;2023-02-18T14:32:42;10.18;;;5.18;;
71395;SDS011;59888;55.814;37.132;2023-02-18T14:49:17;9.65;;;4.63;;
71395;SDS011;59888;55.814;37.132;2023-02-18T14:51:58;10.68;;;5.30;;
71395;SDS011;59888;55.814;37.132;2023-02-18T14:54:25;12.00;;;5.32;;
71395;SDS011;59888;55.814;37.132;2023-02-18T14:56:56;11.43;;;5.30;;
71395;SDS011;59888;55.814;37.132;2023-02-18T14:59:40;10.02;;;4.50;;
71395;SDS011;59888;55.814;37.132;2023-02-18T15:02:20;10.60;;;5.00;;
71395;SDS011;59888;55.814;37.132;2023-02-18T15:04:49;9.95;;;4.90;;
71395;SDS011;59888;55.814;37.132;2023-02-18T15:07:17;10.13;;;5.03;;
71395;SDS011;59888;55.814;37.132;2023-02-18T15:09:45;9.88;;;5.05;;
71395;SDS011;59888;55.814;37.132;2023-02-18T15:12:13;11.20;;;4.93;;
71395;SDS011;59888;55.814;37.132;2023-02-18T15:14:43;9.40;;;4.35;;
71395;SDS011;59888;55.814;37.132;2023-02-18T15:17:16;7.28;;;4.00;;
71395;SDS011;59888;55.814;37.132;2023-02-18T15:20:03;10.25;;;4.70;;
71395;SDS011;59888;55.814;37.132;2023-02-18T15:22:31;11.23;;;5.28;;
71395;SDS011;59888;55.814;37.132;2023-02-18T15:24:59;8.98;;;4.60;;
71395;SDS011;59888;55.814;37.132;2023-02-18T15:27:30;8.55;;;4.50;;
71395;SDS011;59888;55.814;37.132;2023-02-18T15:30:18;8.77;;;4.63;;
71395;SDS011;59888;55.814;37.132;2023-02-18T15:35:20;8.45;;;4.55;;
71395;SDS011;59888;55.814;37.132;2023-02-18T15:37:51;8.48;;;4.55;;
71395;SDS011;59888;55.814;37.132;2023-02-18T15:40:20;9.48;;;4.50;;
71395;SDS011;59888;55.814;37.132;2023-02-18T15:42:49;12.27;;;5.80;;
71395;SDS011;59888;55.814;37.132;2023-02-18T15:47:46;13.57;;;5.55;;
71395;SDS011;59888;55.814;37.132;2023-02-18T15:50:20;10.07;;;5.20;;
71395;SDS011;59888;55.814;37.132;2023-02-18T15:52:49;11.90;;;5.50;;
71395;SDS011;59888;55.814;37.132;2023-02-18T15:55:39;10.85;;;5.18;;
71395;SDS011;59888;55.814;37.132;2023-02-18T15:58:11;9.60;;;4.93;;
71395;SDS011;59888;55.814;37.132;2023-02-18T16:00:45;8.32;;;4.40;;
71395;SDS011;59888;55.814;37.132;2023-02-18T16:03:24;9.57;;;4.57;;
71395;SDS011;59888;55.814;37.132;2023-02-18T16:06:08;10.27;;;4.32;;
71395;SDS011;59888;55.814;37.132;2023-02-18T16:08:35;11.02;;;4.28;;
71395;SDS011;59888;55.814;37.132;2023-02-18T16:11:06;10.43;;;4.60;;
71395;SDS011;59888;55.814;37.132;2023-02-18T16:13:43;7.35;;;3.85;;
71395;SDS011;59888;55.814;37.132;2023-02-18T16:16:22;10.95;;;5.05;;
71395;SDS011;59888;55.814;37.132;2023-02-18T16:18:51;8.98;;;4.22;;
71395;SDS011;59888;55.814;37.132;2023-02-18T16:23:44;9.15;;;4.03;;
71395;SDS011;59888;55.814;37.132;2023-02-18T16:26:39;10.45;;;4.53;;
71395;SDS011;59888;55.814;37.132;2023-02-18T16:29:12;9.60;;;4.45;;
71395;SDS011;59888;55.814;37.132;2023-02-18T16:31:46;6.85;;;3.78;;
71395;SDS011;59888;55.814;37.132;2023-02-18T16:34:12;8.88;;;4.82;;
71395;SDS011;59888;55.814;37.132;2023-02-18T16:36:38;9.15;;;4.88;;
71395;SDS011;59888;55.814;37.132;2023-02-18T16:39:24;11.32;;;5.18;;
71395;SDS011;59888;55.814;37.132;2023-02-18T16:41:50;8.35;;;4.50;;
71395;SDS011;59888;55.814;37.132;2023-02-18T16:44:15;10.02;;;5.15;;
71395;SDS011;59888;55.814;37.132;2023-02-18T16:46:41;8.65;;;4.47;;
71395;SDS011;59888;55.814;37.132;2023-02-18T16:49:07;8.43;;;3.90;;
71395;SDS011;59888;55.814;37.132;2023-02-18T16:51:38;9.63;;;4.53;;
71395;SDS011;59888;55.814;37.132;2023-02-18T16:54:12;8.93;;;4.47;;
71395;SDS011;59888;55.814;37.132;2023-02-18T16:56:38;11.55;;;4.60;;
71395;SDS011;59888;55.814;37.132;2023-02-18T16:59:05;11.05;;;4.53;;
71395;SDS011;59888;55.814;37.132;2023-02-18T17:03:57;9.57;;;4.20;;
71395;SDS011;59888;55.814;37.132;2023-02-18T17:06:25;10.25;;;4.68;;
71395;SDS011;59888;55.814;37.132;2023-02-18T17:08:52;9.30;;;5.05;;
71395;SDS011;59888;55.814;37.132;2023-02-18T17:11:19;9.73;;;4.47;;
71395;SDS011;59888;55.814;37.132;2023-02-18T17:13:48;10.45;;;4.57;;
71395;SDS011;59888;55.814;37.132;2023-02-18T17:16:14;9.50;;;4.70;;
71395;SDS011;59888;55.814;37.132;2023-02-18T17:18:41;8.70;;;4.63;;
71395;SDS011;59888;55.814;37.132;2023-02-18T17:21:18;9.35;;;4.32;;
71395;SDS011;59888;55.814;37.132;2023-02-18T17:23:45;9.70;;;4.85;;
71395;SDS011;59888;55.814;37.132;2023-02-18T17:26:20;10.95;;;4.88;;
71395;SDS011;59888;55.814;37.132;2023-02-18T17:28:51;10.38;;;5.03;;
71395;SDS011;59888;55.814;37.132;2023-02-18T17:31:25;14.02;;;5.13;;
71395;SDS011;59888;55.814;37.132;2023-02-18T17:33:53;10.25;;;4.78;;
71395;SDS011;59888;55.814;37.132;2023-02-18T17:36:21;9.35;;;4.50;;
71395;SDS011;59888;55.814;37.132;2023-02-18T17:38:47;10.60;;;4.90;;
71395;SDS011;59888;55.814;37.132;2023-02-18T17:41:13;10.15;;;4.90;;
71395;SDS011;59888;55.814;37.132;2023-02-18T17:43:40;10.65;;;5.57;;